Terminal Aerodrome Forecast
Issued by NWS Austin/San Antonio, TX

Home | Current Version | Previous Version | Text Only | Print | Product List | Glossary On
Versions: 1 2 3 4 5 6 7 8 9 10 11 12 13
917
FTUS44 KEWX 052320
TAFAUS
TAF
KAUS 052320Z 0600/0706 VRB03KT P6SM SCT200
     FM061700 15006KT P6SM FEW250=

USA.gov is the U.S. government's official web portal to all federal, state and local government web resources and services.